createdAt,value
2022-12-24T00:00:49.096Z,100587.42
2022-12-24T00:03:23.240Z,100588.89
2022-12-24T00:05:54.100Z,100583.81
2022-12-24T00:08:24.891Z,100580.16
2022-12-24T00:10:55.623Z,100581.64
2022-12-24T00:13:26.420Z,100580.21
2022-12-24T00:15:57.133Z,100577.38
2022-12-24T00:18:27.990Z,100572.92
2022-12-24T00:20:58.676Z,100573.74
2022-12-24T00:23:29.441Z,100569.80
2022-12-24T00:26:00.112Z,100574.87
2022-12-24T00:28:30.827Z,100576.95
2022-12-24T00:31:01.632Z,100581.74
2022-12-24T00:33:32.360Z,100578.48
2022-12-24T00:36:03.054Z,100578.54
2022-12-24T00:38:33.737Z,100575.84
2022-12-24T00:41:05.298Z,100571.01
2022-12-24T00:43:36.081Z,100563.86
2022-12-24T00:46:07.011Z,100558.95
2022-12-24T00:48:37.863Z,100553.98
2022-12-24T00:51:08.802Z,100548.84
2022-12-24T00:53:39.584Z,100548.44
2022-12-24T00:56:10.606Z,100543.85
2022-12-24T00:58:41.279Z,100545.52
2022-12-24T01:01:12.198Z,100549.98
2022-12-24T01:03:43.286Z,100560.28
2022-12-24T01:06:14.746Z,100562.93
2022-12-24T01:08:45.435Z,100566.55
2022-12-24T01:11:16.304Z,100571.02
2022-12-24T01:13:46.936Z,100571.66
2022-12-24T01:16:22.616Z,100569.77
2022-12-24T01:18:53.418Z,100565.69
2022-12-24T01:21:24.142Z,100556.92
2022-12-24T01:23:55.130Z,100546.81
2022-12-24T01:26:25.769Z,100537.33
2022-12-24T01:28:57.637Z,100540.45
2022-12-24T01:31:28.554Z,100537.91
2022-12-24T01:33:59.258Z,100540.73
2022-12-24T01:36:30.102Z,100540.23
2022-12-24T01:39:01.074Z,100536.54
2022-12-24T01:41:50.774Z,100532.30
2022-12-24T01:44:22.967Z,100534.16
2022-12-24T01:46:54.398Z,100529.52
2022-12-24T01:49:25.197Z,100524.89
2022-12-24T01:51:57.625Z,100517.42
2022-12-24T01:54:30.613Z,100515.65
2022-12-24T01:57:01.809Z,100519.81
2022-12-24T01:59:32.646Z,100523.59
2022-12-24T02:02:03.495Z,100524.50
2022-12-24T02:04:35.818Z,100527.27
2022-12-24T02:07:06.597Z,100523.06
2022-12-24T02:09:37.487Z,100519.90
2022-12-24T02:12:08.437Z,100529.02
2022-12-24T02:14:39.161Z,100530.92
2022-12-24T02:17:12.049Z,100529.04
2022-12-24T02:19:49.023Z,100530.64
2022-12-24T02:22:20.196Z,100526.04
2022-12-24T02:25:04.708Z,100519.20
2022-12-24T02:27:36.498Z,100514.71
2022-12-24T02:30:14.771Z,100515.95
2022-12-24T02:32:48.103Z,100509.27
2022-12-24T02:35:19.965Z,100506.55
2022-12-24T02:37:51.383Z,100503.83
2022-12-24T02:40:23.591Z,100503.96
2022-12-24T02:42:55.442Z,100497.45
2022-12-24T02:45:27.741Z,100504.39
2022-12-24T02:47:58.579Z,100506.60
2022-12-24T02:50:29.525Z,100513.58
2022-12-24T02:53:00.259Z,100511.65
2022-12-24T02:55:35.184Z,100509.00
2022-12-24T02:58:11.429Z,100508.61
2022-12-24T03:00:45.107Z,100504.45
2022-12-24T03:03:20.050Z,100505.95
2022-12-24T03:05:51.661Z,100502.23
2022-12-24T03:08:26.568Z,100505.73
2022-12-24T03:10:58.500Z,100511.06
2022-12-24T03:13:29.436Z,100515.95
2022-12-24T03:16:00.192Z,100522.04
2022-12-24T03:18:31.029Z,100521.09
2022-12-24T03:21:02.390Z,100520.88
2022-12-24T03:23:33.119Z,100521.52
2022-12-24T03:26:06.218Z,100523.67
2022-12-24T03:28:38.325Z,100523.77
2022-12-24T03:31:34.339Z,100524.52
2022-12-24T03:34:29.456Z,100524.09
2022-12-24T03:37:00.766Z,100523.08
2022-12-24T03:39:31.642Z,100519.50
2022-12-24T03:42:02.338Z,100519.33
2022-12-24T03:44:33.080Z,100517.40
2022-12-24T03:47:03.801Z,100514.02
2022-12-24T03:49:34.655Z,100508.19
2022-12-24T03:52:05.604Z,100510.23
2022-12-24T03:54:36.443Z,100513.23
2022-12-24T03:57:07.162Z,100517.62
2022-12-24T03:59:37.859Z,100515.82
2022-12-24T04:02:08.853Z,100516.34
2022-12-24T04:04:39.923Z,100516.31
2022-12-24T04:07:10.678Z,100512.92
2022-12-24T04:09:41.521Z,100512.46
2022-12-24T04:12:12.312Z,100514.13
2022-12-24T04:14:43.019Z,100518.14
2022-12-24T04:17:13.681Z,100523.03
2022-12-24T04:19:46.585Z,100523.96
2022-12-24T04:22:17.309Z,100529.98
2022-12-24T04:24:47.990Z,100530.97
2022-12-24T04:27:18.940Z,100524.59
2022-12-24T04:29:50.360Z,100519.32
2022-12-24T04:32:21.130Z,100517.52
2022-12-24T04:34:51.859Z,100520.95
2022-12-24T04:37:22.669Z,100518.79
2022-12-24T04:39:53.530Z,100521.67
2022-12-24T04:42:24.291Z,100520.33
2022-12-24T04:44:55.116Z,100519.20
2022-12-24T04:47:25.920Z,100517.16
2022-12-24T04:49:56.846Z,100517.89
2022-12-24T04:52:27.711Z,100523.61
2022-12-24T04:55:00.935Z,100525.66
2022-12-24T04:57:33.918Z,100535.73
2022-12-24T05:00:05.532Z,100537.02
2022-12-24T05:02:36.502Z,100539.08
2022-12-24T05:05:08.044Z,100535.73
2022-12-24T05:07:38.853Z,100534.87
2022-12-24T05:10:11.194Z,100531.15
2022-12-24T05:12:41.995Z,100533.16
2022-12-24T05:15:12.715Z,100527.11
2022-12-24T05:17:43.595Z,100529.00
2022-12-24T05:20:14.439Z,100527.82
2022-12-24T05:23:11.078Z,100525.86
2022-12-24T05:25:59.131Z,100521.67
2022-12-24T05:28:29.821Z,100527.80
2022-12-24T05:31:01.882Z,100529.49
2022-12-24T05:33:33.095Z,100528.50
2022-12-24T05:36:03.934Z,100530.30
2022-12-24T05:38:34.777Z,100529.41
2022-12-24T05:41:05.661Z,100537.45
2022-12-24T05:43:36.503Z,100539.16
2022-12-24T05:46:08.283Z,100539.89
2022-12-24T05:48:39.161Z,100540.77
2022-12-24T05:51:11.115Z,100542.70
2022-12-24T05:53:42.011Z,100542.59
2022-12-24T05:56:13.472Z,100536.64
2022-12-24T05:58:44.761Z,100540.78
2022-12-24T06:01:16.048Z,100534.14
2022-12-24T06:03:46.942Z,100536.77
2022-12-24T06:06:19.452Z,100534.95
2022-12-24T06:08:50.525Z,100534.88
2022-12-24T06:11:22.073Z,100538.05
2022-12-24T06:13:53.662Z,100537.38
2022-12-24T06:16:24.838Z,100537.71
2022-12-24T06:18:55.803Z,100539.82
2022-12-24T06:21:26.765Z,100540.04
2022-12-24T06:23:57.918Z,100538.80
2022-12-24T06:26:28.803Z,100540.23
2022-12-24T06:29:00.802Z,100539.45
2022-12-24T06:31:31.908Z,100538.17
2022-12-24T06:34:02.658Z,100535.16
2022-12-24T06:36:33.595Z,100527.88
2022-12-24T06:39:04.429Z,100532.39
2022-12-24T06:41:35.335Z,100531.37
2022-12-24T06:44:06.577Z,100526.46
2022-12-24T06:46:37.510Z,100532.14
2022-12-24T06:49:08.506Z,100542.05
2022-12-24T06:51:39.339Z,100538.61
2022-12-24T06:54:10.289Z,100548.91
2022-12-24T06:56:41.313Z,100550.05
2022-12-24T06:59:12.218Z,100552.03
2022-12-24T07:01:43.111Z,100553.67
2022-12-24T07:04:20.403Z,100554.27
2022-12-24T07:06:53.156Z,100550.39
2022-12-24T07:09:24.053Z,100548.44
2022-12-24T07:11:55.246Z,100545.02
2022-12-24T07:14:25.990Z,100547.73
2022-12-24T07:16:59.360Z,100548.80
2022-12-24T07:19:30.509Z,100552.02
2022-12-24T07:22:01.450Z,100550.98
2022-12-24T07:24:32.483Z,100551.76
2022-12-24T07:27:03.335Z,100546.72
2022-12-24T07:29:33.957Z,100543.02
2022-12-24T07:32:05.004Z,100552.73
2022-12-24T07:34:35.829Z,100555.91
2022-12-24T07:37:06.666Z,100550.45
2022-12-24T07:39:37.336Z,100550.45
2022-12-24T07:42:08.829Z,100547.67
2022-12-24T07:44:40.333Z,100537.83
2022-12-24T07:47:11.276Z,100532.41
2022-12-24T07:49:42.237Z,100532.66
2022-12-24T07:52:13.125Z,100536.15
2022-12-24T07:54:43.938Z,100540.55
2022-12-24T07:57:14.714Z,100548.48
2022-12-24T07:59:45.554Z,100548.00
2022-12-24T08:02:18.687Z,100552.67
2022-12-24T08:04:49.942Z,100551.81
2022-12-24T08:07:20.846Z,100548.84
2022-12-24T08:09:51.655Z,100545.52
2022-12-24T08:12:22.492Z,100548.63
2022-12-24T08:14:53.253Z,100544.87
2022-12-24T08:17:28.558Z,100533.97
2022-12-24T08:20:02.986Z,100533.26
2022-12-24T08:22:33.703Z,100533.25
2022-12-24T08:25:04.486Z,100531.95
2022-12-24T08:27:35.259Z,100529.27
2022-12-24T08:30:07.128Z,100523.30
2022-12-24T08:32:37.971Z,100530.17
2022-12-24T08:35:09.590Z,100540.39
2022-12-24T08:37:40.367Z,100536.08
2022-12-24T08:40:13.117Z,100530.07
2022-12-24T08:42:44.168Z,100526.55
2022-12-24T08:45:15.158Z,100521.25
2022-12-24T08:47:45.993Z,100518.16
2022-12-24T08:50:16.877Z,100512.86
2022-12-24T08:52:47.905Z,100512.33
2022-12-24T08:55:18.739Z,100513.86
2022-12-24T08:58:03.773Z,100518.76
2022-12-24T09:00:34.903Z,100528.65
2022-12-24T09:03:13.813Z,100521.44
2022-12-24T09:05:48.045Z,100517.36
2022-12-24T09:08:18.932Z,100511.49
2022-12-24T09:10:49.893Z,100505.73
2022-12-24T09:13:35.612Z,100497.64
2022-12-24T09:16:12.581Z,100501.73
2022-12-24T09:18:47.727Z,100503.33
2022-12-24T09:21:23.337Z,100500.23
2022-12-24T09:23:54.057Z,100500.48
2022-12-24T09:26:29.911Z,100505.09
2022-12-24T09:29:03.403Z,100507.27
2022-12-24T09:31:47.509Z,100495.79
2022-12-24T09:34:23.865Z,100497.54
2022-12-24T09:36:58.819Z,100493.33
2022-12-24T09:39:37.327Z,100494.72
2022-12-24T09:42:18.127Z,100504.47
2022-12-24T09:45:03.072Z,100499.45
2022-12-24T09:47:36.399Z,100489.67
2022-12-24T09:50:09.310Z,100498.17
2022-12-24T09:52:40.453Z,100508.77
2022-12-24T09:55:15.310Z,100498.98
2022-12-24T09:57:46.014Z,100496.98
2022-12-24T10:00:19.625Z,100495.09
2022-12-24T10:02:50.687Z,100494.05
2022-12-24T10:05:32.806Z,100505.44
2022-12-24T10:08:12.692Z,100502.98
2022-12-24T10:10:48.731Z,100507.23
2022-12-24T10:13:32.291Z,100509.77
2022-12-24T10:16:13.734Z,100514.25
2022-12-24T10:18:51.789Z,100518.27
2022-12-24T10:21:28.762Z,100523.94
2022-12-24T10:24:02.188Z,100527.30
2022-12-24T10:26:35.854Z,100525.16
2022-12-24T10:29:09.187Z,100522.54
2022-12-24T10:31:44.636Z,100516.91
2022-12-24T10:34:21.200Z,100516.00
2022-12-24T10:36:54.922Z,100511.00
2022-12-24T10:39:27.998Z,100508.59
2022-12-24T10:41:58.952Z,100510.98
2022-12-24T10:44:30.412Z,100509.84
2022-12-24T10:47:01.187Z,100510.25
2022-12-24T10:49:33.416Z,100509.27
2022-12-24T10:52:06.215Z,100508.30
2022-12-24T10:54:40.097Z,100511.27
2022-12-24T10:57:25.450Z,100505.70
2022-12-24T10:59:56.530Z,100507.06
2022-12-24T11:02:30.969Z,100512.14
2022-12-24T11:05:02.568Z,100509.86
2022-12-24T11:07:33.541Z,100510.48
2022-12-24T11:10:06.039Z,100502.63
2022-12-24T11:12:37.251Z,100501.06
2022-12-24T11:15:09.538Z,100498.45
2022-12-24T11:17:40.703Z,100493.60
2022-12-24T11:20:17.646Z,100493.70
2022-12-24T11:22:50.480Z,100492.75
2022-12-24T11:25:22.532Z,100490.60
2022-12-24T11:27:53.340Z,100491.26
2022-12-24T11:30:25.952Z,100494.25
2022-12-24T11:33:10.127Z,100493.52
2022-12-24T11:35:42.483Z,100493.45
2022-12-24T11:38:19.420Z,100496.34
2022-12-24T11:40:53.304Z,100494.14
2022-12-24T11:43:24.228Z,100497.55
2022-12-24T11:45:55.906Z,100496.77
2022-12-24T11:48:28.629Z,100493.65
2022-12-24T11:50:59.978Z,100497.16
2022-12-24T11:53:32.251Z,100496.90
2022-12-24T11:56:03.995Z,100490.54
2022-12-24T11:58:35.679Z,100494.70
2022-12-24T12:01:15.391Z,100496.53
2022-12-24T12:03:47.485Z,100495.33
2022-12-24T12:06:22.010Z,100496.69
2022-12-24T12:08:56.343Z,100499.02
2022-12-24T12:11:29.595Z,100492.17
2022-12-24T12:14:00.914Z,100492.70
2022-12-24T12:16:52.465Z,100488.02
2022-12-24T12:19:23.205Z,100490.27
2022-12-24T12:21:54.148Z,100490.55
2022-12-24T12:24:31.760Z,100493.08
2022-12-24T12:27:05.033Z,100494.60
2022-12-24T12:29:37.148Z,100490.50
2022-12-24T12:32:08.966Z,100491.13
2022-12-24T12:34:40.528Z,100492.06
2022-12-24T12:37:14.954Z,100492.94
2022-12-24T12:39:46.251Z,100494.03
2022-12-24T12:42:18.207Z,100491.76
2022-12-24T12:45:01.232Z,100487.03
2022-12-24T12:47:38.658Z,100492.39
2022-12-24T12:50:11.423Z,100490.33
2022-12-24T12:52:46.187Z,100488.63
2022-12-24T12:55:24.990Z,100484.89
2022-12-24T12:57:56.797Z,100486.06
2022-12-24T13:00:27.704Z,100490.10
2022-12-24T13:03:22.173Z,100495.16
2022-12-24T13:06:00.761Z,100494.93
2022-12-24T13:08:35.836Z,100492.11
2022-12-24T13:11:09.960Z,100487.46
2022-12-24T13:13:56.099Z,100487.87
2022-12-24T13:16:31.336Z,100486.30
2022-12-24T13:19:10.337Z,100492.09
2022-12-24T13:21:41.217Z,100488.13
2022-12-24T13:24:16.438Z,100491.88
2022-12-24T13:26:59.510Z,100493.55
2022-12-24T13:29:39.694Z,100494.35
2022-12-24T13:32:28.802Z,100497.06
2022-12-24T13:35:00.389Z,100495.16
2022-12-24T13:37:36.155Z,100496.15
2022-12-24T13:40:17.387Z,100493.51
2022-12-24T13:42:52.347Z,100495.33
2022-12-24T13:45:41.079Z,100493.93
2022-12-24T13:48:18.564Z,100492.53
2022-12-24T13:50:50.417Z,100487.80
2022-12-24T13:53:22.891Z,100492.48
2022-12-24T13:55:55.218Z,100488.21
2022-12-24T13:58:26.876Z,100482.60
2022-12-24T14:00:58.103Z,100477.73
2022-12-24T14:03:32.842Z,100477.86
2022-12-24T14:06:04.237Z,100473.02
2022-12-24T14:08:36.968Z,100466.63
2022-12-24T14:11:09.521Z,100467.84
2022-12-24T14:13:57.608Z,100469.73
2022-12-24T14:16:31.137Z,100458.51
2022-12-24T14:19:02.398Z,100455.44
2022-12-24T14:21:34.726Z,100447.41
2022-12-24T14:24:06.872Z,100442.21
2022-12-24T14:26:38.256Z,100434.61
2022-12-24T14:29:24.461Z,100444.35
2022-12-24T14:31:56.415Z,100454.73
2022-12-24T14:34:28.814Z,100464.58
2022-12-24T14:36:59.595Z,100466.66
2022-12-24T14:39:31.200Z,100460.80
2022-12-24T14:42:14.471Z,100464.96
2022-12-24T14:44:54.605Z,100483.69
2022-12-24T14:47:27.490Z,100485.91
2022-12-24T14:50:12.049Z,100487.85
2022-12-24T14:55:42.725Z,100494.65
2022-12-24T14:58:26.690Z,100500.27
2022-12-24T15:01:04.159Z,100502.85
2022-12-24T15:03:36.764Z,100505.83
2022-12-24T15:06:14.809Z,100508.73
2022-12-24T15:08:49.332Z,100503.77
2022-12-24T15:11:23.227Z,100501.23
2022-12-24T15:13:56.892Z,100509.24
2022-12-24T15:16:31.055Z,100509.33
2022-12-24T15:19:05.185Z,100505.51
2022-12-24T15:21:41.792Z,100505.53
2022-12-24T15:24:26.752Z,100506.98
2022-12-24T15:27:01.823Z,100508.02
2022-12-24T15:29:39.540Z,100511.91
2022-12-24T15:32:14.861Z,100510.89
2022-12-24T15:34:51.336Z,100516.92
2022-12-24T15:37:32.253Z,100512.16
2022-12-24T15:40:06.735Z,100510.59
2022-12-24T15:42:41.967Z,100509.60
2022-12-24T15:45:15.269Z,100508.94
2022-12-24T15:47:46.750Z,100508.26
2022-12-24T15:50:17.964Z,100512.84
2022-12-24T15:52:48.738Z,100511.58
2022-12-24T15:55:40.188Z,100509.44
2022-12-24T15:58:17.546Z,100510.69
2022-12-24T16:01:00.914Z,100508.70
2022-12-24T16:03:34.759Z,100513.11
2022-12-24T16:06:06.167Z,100509.17
2022-12-24T16:08:39.154Z,100508.27
2022-12-24T16:11:16.164Z,100511.38
2022-12-24T16:13:59.618Z,100512.91
2022-12-24T16:16:34.811Z,100505.97
2022-12-24T16:19:07.215Z,100502.08
2022-12-24T16:21:38.775Z,100500.44
2022-12-24T16:24:14.290Z,100495.06
2022-12-24T16:26:48.365Z,100492.30
2022-12-24T16:29:19.836Z,100495.74
2022-12-24T16:31:51.310Z,100492.84
2022-12-24T16:34:22.395Z,100492.13
2022-12-24T16:36:53.732Z,100485.56
2022-12-24T16:39:25.165Z,100485.42
2022-12-24T16:42:28.367Z,100486.76
2022-12-24T16:45:00.202Z,100496.65
2022-12-24T16:47:37.259Z,100493.52
2022-12-24T16:50:16.159Z,100495.68
2022-12-24T16:52:46.915Z,100496.23
2022-12-24T16:55:17.813Z,100494.09
2022-12-24T16:57:48.516Z,100493.83
2022-12-24T17:00:21.539Z,100501.02
2022-12-24T17:02:52.479Z,100501.54
2022-12-24T17:05:24.422Z,100497.27
2022-12-24T17:07:55.089Z,100499.23
2022-12-24T17:10:25.823Z,100503.13
2022-12-24T17:12:56.673Z,100502.58
2022-12-24T17:15:27.588Z,100506.95
2022-12-24T17:17:58.408Z,100512.15
2022-12-24T17:20:29.269Z,100515.38
2022-12-24T17:22:59.991Z,100513.34
2022-12-24T17:25:30.635Z,100510.44
2022-12-24T17:28:01.273Z,100516.27
2022-12-24T17:30:31.986Z,100515.30
2022-12-24T17:33:02.643Z,100520.38
2022-12-24T17:35:33.308Z,100523.48
2022-12-24T17:38:04.010Z,100523.64
2022-12-24T17:40:34.679Z,100528.25
2022-12-24T17:43:05.577Z,100532.30
2022-12-24T17:45:36.361Z,100534.82
2022-12-24T17:48:07.664Z,100538.21
2022-12-24T17:50:41.304Z,100538.81
2022-12-24T17:53:12.148Z,100536.23
2022-12-24T17:55:43.719Z,100537.78
2022-12-24T17:58:15.477Z,100534.51
2022-12-24T18:00:46.327Z,100538.66
2022-12-24T18:03:17.351Z,100541.48
2022-12-24T18:05:48.276Z,100544.74
2022-12-24T18:08:19.113Z,100546.23
2022-12-24T18:10:49.977Z,100545.45
2022-12-24T18:13:20.831Z,100543.86
2022-12-24T18:15:51.618Z,100549.09
2022-12-24T18:18:23.863Z,100542.83
2022-12-24T18:20:54.671Z,100544.73
2022-12-24T18:23:25.355Z,100552.56
2022-12-24T18:25:55.983Z,100555.85
2022-12-24T18:28:26.511Z,100558.99
2022-12-24T18:31:00.603Z,100559.78
2022-12-24T18:33:31.498Z,100563.14
2022-12-24T18:36:02.191Z,100569.52
2022-12-24T18:38:32.939Z,100570.85
2022-12-24T18:41:05.206Z,100575.42
2022-12-24T18:43:36.049Z,100577.91
2022-12-24T18:46:09.452Z,100575.16
2022-12-24T18:48:40.324Z,100572.17
2022-12-24T18:51:11.437Z,100582.41
2022-12-24T18:53:42.116Z,100590.68
2022-12-24T18:56:14.716Z,100586.02
2022-12-24T18:58:45.705Z,100582.26
2022-12-24T19:01:17.291Z,100585.61
2022-12-24T19:03:49.326Z,100592.68
2022-12-24T19:06:20.663Z,100593.31
2022-12-24T19:09:00.321Z,100597.31
2022-12-24T19:11:32.308Z,100594.00
2022-12-24T19:14:03.114Z,100593.52
2022-12-24T19:16:34.950Z,100591.41
2022-12-24T19:19:06.057Z,100588.67
2022-12-24T19:21:36.673Z,100587.47
2022-12-24T19:24:10.693Z,100593.81
2022-12-24T19:26:41.573Z,100596.70
2022-12-24T19:29:12.229Z,100603.02
2022-12-24T19:31:44.389Z,100603.70
2022-12-24T19:34:15.237Z,100601.17
2022-12-24T19:36:46.888Z,100600.34
2022-12-24T19:39:17.635Z,100600.71
2022-12-24T19:41:48.720Z,100603.66
2022-12-24T19:44:19.515Z,100607.41
2022-12-24T19:46:50.237Z,100612.08
2022-12-24T19:49:21.046Z,100612.99
2022-12-24T19:51:52.548Z,100614.50
2022-12-24T19:54:23.774Z,100615.75
2022-12-24T19:56:54.696Z,100612.60
2022-12-24T19:59:25.421Z,100605.08
2022-12-24T20:01:56.362Z,100610.58
2022-12-24T20:04:27.300Z,100613.30
2022-12-24T20:07:00.821Z,100619.98
2022-12-24T20:09:34.032Z,100628.86
2022-12-24T20:12:04.956Z,100634.52
2022-12-24T20:14:35.675Z,100641.23
2022-12-24T20:17:06.564Z,100643.77
2022-12-24T20:19:37.516Z,100650.23
2022-12-24T20:22:08.298Z,100651.61
2022-12-24T20:24:40.221Z,100654.34
2022-12-24T20:27:11.875Z,100659.17
2022-12-24T20:29:42.552Z,100665.02
2022-12-24T20:32:13.419Z,100670.50
2022-12-24T20:34:44.248Z,100669.11
2022-12-24T20:37:14.862Z,100668.08
2022-12-24T20:39:46.116Z,100668.54
2022-12-24T20:42:16.815Z,100677.26
2022-12-24T20:44:49.326Z,100682.05
2022-12-24T20:47:20.173Z,100690.43
2022-12-24T20:49:50.902Z,100685.40
2022-12-24T20:52:21.715Z,100681.59
2022-12-24T20:54:52.544Z,100683.84
2022-12-24T20:57:27.805Z,100693.80
2022-12-24T21:00:01.633Z,100703.46
2022-12-24T21:02:32.637Z,100705.41
2022-12-24T21:05:04.101Z,100703.54
2022-12-24T21:07:34.820Z,100698.39
2022-12-24T21:10:05.656Z,100700.15
2022-12-24T21:12:57.079Z,100707.59
2022-12-24T21:15:29.680Z,100708.42
2022-12-24T21:18:00.451Z,100702.56
2022-12-24T21:20:31.499Z,100703.91
2022-12-24T21:23:02.832Z,100706.79
2022-12-24T21:25:33.651Z,100702.50
2022-12-24T21:28:04.526Z,100705.97
2022-12-24T21:30:35.256Z,100712.00
2022-12-24T21:33:06.173Z,100716.73
2022-12-24T21:35:37.029Z,100715.33
2022-12-24T21:38:08.186Z,100716.30
2022-12-24T21:40:38.892Z,100716.29
2022-12-24T21:43:09.862Z,100717.62
2022-12-24T21:45:42.618Z,100718.25
2022-12-24T21:48:27.269Z,100718.17
2022-12-24T21:50:57.907Z,100726.30
2022-12-24T21:53:46.184Z,100727.27
2022-12-24T21:56:16.932Z,100731.34
2022-12-24T21:58:47.840Z,100733.71
2022-12-24T22:01:18.910Z,100741.41
2022-12-24T22:03:50.807Z,100745.77
2022-12-24T22:06:41.108Z,100747.36
2022-12-24T22:09:30.329Z,100757.33
2022-12-24T22:12:00.949Z,100763.90
2022-12-24T22:14:33.220Z,100769.83
2022-12-24T22:17:03.941Z,100762.80
2022-12-24T22:19:34.738Z,100760.23
2022-12-24T22:22:05.468Z,100759.88
2022-12-24T22:24:36.201Z,100764.67
2022-12-24T22:27:07.824Z,100769.92
2022-12-24T22:29:38.546Z,100771.44
2022-12-24T22:32:09.423Z,100781.48
2022-12-24T22:34:40.200Z,100779.10
2022-12-24T22:37:10.849Z,100779.27
2022-12-24T22:39:41.549Z,100783.02
2022-12-24T22:42:12.308Z,100784.65
2022-12-24T22:44:43.093Z,100784.67
2022-12-24T22:47:13.862Z,100782.33
2022-12-24T22:49:44.559Z,100781.16
2022-12-24T22:52:15.225Z,100781.55
2022-12-24T22:54:45.920Z,100781.82
2022-12-24T22:57:16.780Z,100778.64
2022-12-24T22:59:49.542Z,100781.18
2022-12-24T23:02:25.883Z,100782.05
2022-12-24T23:04:59.016Z,100780.24
2022-12-24T23:07:29.652Z,100769.11
2022-12-24T23:10:00.722Z,100779.98
2022-12-24T23:12:48.756Z,100775.83
2022-12-24T23:15:19.609Z,100775.16
2022-12-24T23:17:51.162Z,100778.48
2022-12-24T23:20:21.909Z,100779.27
2022-12-24T23:22:52.848Z,100776.63
2022-12-24T23:25:23.591Z,100783.44
2022-12-24T23:27:54.388Z,100784.06
2022-12-24T23:30:25.276Z,100788.10
2022-12-24T23:32:56.075Z,100788.75
2022-12-24T23:35:26.845Z,100795.89
2022-12-24T23:37:57.473Z,100792.29
2022-12-24T23:40:28.248Z,100796.04
2022-12-24T23:42:59.021Z,100801.01
2022-12-24T23:45:29.731Z,100801.45
2022-12-24T23:48:00.381Z,100805.96
2022-12-24T23:50:31.233Z,100813.86
2022-12-24T23:53:01.990Z,100813.52
2022-12-24T23:55:32.833Z,100818.27
2022-12-24T23:58:03.521Z,100821.98
